createdAt,value
2019-06-10T00:02:10.937Z,101815.19
2019-06-10T00:04:38.826Z,101812.27
2019-06-10T00:07:07.356Z,101809.81
2019-06-10T00:09:35.380Z,101809.94
2019-06-10T00:12:04.735Z,101811.26
2019-06-10T00:14:32.878Z,101806.34
2019-06-10T00:17:02.012Z,101806.04
2019-06-10T00:19:31.698Z,101805.19
2019-06-10T00:22:01.980Z,101801.52
2019-06-10T00:24:31.500Z,101795.09
2019-06-10T00:27:00.287Z,101798.97
2019-06-10T00:29:31.115Z,101792.75
2019-06-10T00:32:00.993Z,101783.30
2019-06-10T00:34:31.554Z,101781.88
2019-06-10T00:37:02.663Z,101776.67
2019-06-10T00:39:31.259Z,101774.50
2019-06-10T00:42:02.517Z,101772.55
2019-06-10T00:44:31.107Z,101760.74
2019-06-10T00:47:00.100Z,101764.02
2019-06-10T00:49:28.506Z,101761.85
2019-06-10T00:51:56.445Z,101758.45
2019-06-10T00:54:24.163Z,101749.95
2019-06-10T00:56:52.075Z,101741.56
2019-06-10T00:59:22.128Z,101744.78
2019-06-10T01:01:50.940Z,101740.53
2019-06-10T01:04:21.418Z,101732.42
2019-06-10T01:06:51.391Z,101727.88
2019-06-10T01:09:21.639Z,101734.20
2019-06-10T01:11:51.673Z,101733.55
2019-06-10T01:14:21.355Z,101731.11
2019-06-10T01:16:50.620Z,101732.04
2019-06-10T01:19:18.695Z,101721.00
2019-06-10T01:21:46.366Z,101727.80
2019-06-10T01:24:14.843Z,101727.69
2019-06-10T01:26:42.752Z,101731.53
2019-06-10T01:29:13.648Z,101726.19
2019-06-10T01:31:42.014Z,101719.29
2019-06-10T01:34:12.433Z,101720.31
2019-06-10T01:36:40.738Z,101719.48
2019-06-10T01:39:09.486Z,101719.94
2019-06-10T01:41:40.799Z,101709.85
2019-06-10T01:44:08.458Z,101710.46
2019-06-10T01:46:36.514Z,101709.88
2019-06-10T01:49:04.214Z,101705.38
2019-06-10T01:51:33.696Z,101700.06
2019-06-10T01:54:01.446Z,101696.48
2019-06-10T01:56:31.337Z,101699.32
2019-06-10T01:59:01.348Z,101699.13
2019-06-10T02:01:37.692Z,101693.54
2019-06-10T02:04:05.448Z,101685.92
2019-06-10T02:06:33.165Z,101684.89
2019-06-10T02:09:06.931Z,101687.53
2019-06-10T02:11:35.832Z,101683.67
2019-06-10T02:14:04.438Z,101676.39
2019-06-10T02:16:32.648Z,101675.07
2019-06-10T02:19:03.979Z,101669.44
2019-06-10T02:21:31.152Z,101666.41
2019-06-10T02:24:01.001Z,101660.61
2019-06-10T02:26:30.898Z,101656.84
2019-06-10T02:29:00.561Z,101658.74
2019-06-10T02:31:35.512Z,101651.30
2019-06-10T02:33:57.829Z,101643.74
2019-06-10T02:36:31.248Z,101642.52
2019-06-10T02:38:55.491Z,101630.78
2019-06-10T02:41:31.649Z,101633.89
2019-06-10T02:43:53.534Z,101631.80
2019-06-10T02:46:28.527Z,101624.77
2019-06-10T02:48:54.373Z,101629.02
2019-06-10T02:51:28.661Z,101628.94
2019-06-10T02:53:53.826Z,101629.80
2019-06-10T02:56:27.534Z,101622.33
2019-06-10T02:58:53.440Z,101627.52
2019-06-10T03:01:23.288Z,101623.87
2019-06-10T03:03:53.928Z,101621.05
2019-06-10T03:06:25.231Z,101625.20
2019-06-10T03:08:50.071Z,101615.97
2019-06-10T03:11:19.269Z,101613.14
2019-06-10T03:13:47.710Z,101613.02
2019-06-10T03:16:23.071Z,101614.34
2019-06-10T03:18:52.504Z,101616.31
2019-06-10T03:21:23.067Z,101611.91
2019-06-10T03:23:50.450Z,101607.76
2019-06-10T03:26:19.248Z,101612.16
2019-06-10T03:28:47.319Z,101613.67
2019-06-10T03:31:15.840Z,101608.97
2019-06-10T03:33:47.730Z,101604.81
2019-06-10T03:36:14.424Z,101603.30
2019-06-10T03:38:43.299Z,101598.05
2019-06-10T03:41:12.467Z,101593.80
2019-06-10T03:43:42.686Z,101594.16
2019-06-10T03:46:10.178Z,101592.95
2019-06-10T03:48:37.883Z,101599.06
2019-06-10T03:51:05.765Z,101597.13
2019-06-10T03:53:33.883Z,101598.62
2019-06-10T03:56:02.245Z,101601.84
2019-06-10T03:58:32.612Z,101592.21
2019-06-10T04:01:02.799Z,101593.55
2019-06-10T04:03:29.887Z,101589.19
2019-06-10T04:05:57.606Z,101586.92
2019-06-10T04:08:26.546Z,101580.30
2019-06-10T04:10:54.622Z,101579.37
2019-06-10T04:13:25.851Z,101571.72
2019-06-10T04:15:56.544Z,101562.77
2019-06-10T04:18:27.860Z,101560.41
2019-06-10T04:20:55.486Z,101561.08
2019-06-10T04:23:25.419Z,101567.30
2019-06-10T04:25:53.093Z,101561.07
2019-06-10T04:28:24.071Z,101553.91
2019-06-10T04:30:53.584Z,101553.73
2019-06-10T04:33:23.284Z,101549.11
2019-06-10T04:35:51.949Z,101553.73
2019-06-10T04:38:23.360Z,101548.45
2019-06-10T04:40:52.516Z,101545.99
2019-06-10T04:43:22.981Z,101540.90
2019-06-10T04:45:50.037Z,101545.05
2019-06-10T04:48:18.519Z,101549.77
2019-06-10T04:50:46.637Z,101546.55
2019-06-10T04:53:14.401Z,101548.63
2019-06-10T04:55:43.135Z,101548.06
2019-06-10T04:58:12.950Z,101550.62
2019-06-10T05:00:42.751Z,101550.02
2019-06-10T05:03:12.133Z,101553.63
2019-06-10T05:05:39.944Z,101541.45
2019-06-10T05:08:07.862Z,101543.91
2019-06-10T05:10:35.881Z,101538.37
2019-06-10T05:13:03.568Z,101534.54
2019-06-10T05:15:34.625Z,101536.67
2019-06-10T05:18:03.311Z,101548.63
2019-06-10T05:20:48.943Z,101535.80
2019-06-10T05:23:02.250Z,101537.23
2019-06-10T05:25:32.649Z,101537.31
2019-06-10T05:28:00.211Z,101541.83
2019-06-10T05:30:31.040Z,101541.55
2019-06-10T05:32:59.627Z,101543.95
2019-06-10T05:35:28.473Z,101553.30
2019-06-10T05:37:57.060Z,101553.83
2019-06-10T05:40:26.229Z,101553.45
2019-06-10T05:42:54.335Z,101552.73
2019-06-10T05:45:24.649Z,101546.79
2019-06-10T05:47:53.078Z,101542.00
2019-06-10T05:50:23.413Z,101537.55
2019-06-10T05:52:52.066Z,101539.88
2019-06-10T05:55:22.475Z,101531.67
2019-06-10T05:57:49.753Z,101535.11
2019-06-10T06:00:18.870Z,101527.27
2019-06-10T06:02:46.792Z,101530.55
2019-06-10T06:05:14.951Z,101529.80
2019-06-10T06:07:42.839Z,101528.59
2019-06-10T06:10:13.022Z,101516.17
2019-06-10T06:12:42.450Z,101517.38
2019-06-10T06:15:12.893Z,101516.64
2019-06-10T06:17:42.976Z,101517.02
2019-06-10T06:20:13.120Z,101513.62
2019-06-10T06:22:42.673Z,101507.45
2019-06-10T06:25:15.196Z,101506.19
2019-06-10T06:27:42.243Z,101494.80
2019-06-10T06:30:18.470Z,101496.03
2019-06-10T06:32:43.536Z,101496.07
2019-06-10T06:35:12.640Z,101491.55
2019-06-10T06:37:42.869Z,101495.09
2019-06-10T06:40:13.083Z,101497.56
2019-06-10T06:42:43.106Z,101499.50
2019-06-10T06:45:12.159Z,101493.12
2019-06-10T06:47:39.903Z,101492.25
2019-06-10T06:50:12.897Z,101489.80
2019-06-10T06:53:12.514Z,101490.25
2019-06-10T06:55:10.062Z,101489.11
2019-06-10T06:57:38.980Z,101489.52
2019-06-10T07:00:34.217Z,101486.41
2019-06-10T07:02:38.820Z,101483.22
2019-06-10T07:05:07.957Z,101484.19
2019-06-10T07:07:38.561Z,101477.86
2019-06-10T07:10:07.639Z,101470.61
2019-06-10T07:12:36.731Z,101470.25
2019-06-10T07:15:07.385Z,101469.19
2019-06-10T07:17:37.379Z,101471.77
2019-06-10T07:20:06.932Z,101466.99
2019-06-10T07:22:36.979Z,101465.14
2019-06-10T07:25:07.802Z,101461.80
2019-06-10T07:27:37.542Z,101459.55
2019-06-10T07:30:11.773Z,101454.67
2019-06-10T07:32:38.504Z,101447.80
2019-06-10T07:35:05.660Z,101449.15
2019-06-10T07:37:34.962Z,101444.77
2019-06-10T07:40:04.997Z,101431.70
2019-06-10T07:42:33.302Z,101427.90
2019-06-10T07:45:02.705Z,101426.79
2019-06-10T07:47:32.657Z,101417.03
2019-06-10T07:50:02.878Z,101412.69
2019-06-10T07:52:30.165Z,101413.41
2019-06-10T07:54:59.545Z,101416.77
2019-06-10T07:57:28.427Z,101406.97
2019-06-10T07:59:56.120Z,101401.84
2019-06-10T08:02:24.535Z,101399.24
2019-06-10T08:04:55.175Z,101399.23
2019-06-10T08:07:23.486Z,101400.20
2019-06-10T08:09:53.254Z,101405.00
2019-06-10T08:12:23.257Z,101400.19
2019-06-10T08:14:53.225Z,101387.73
2019-06-10T08:17:22.490Z,101386.98
2019-06-10T08:19:53.494Z,101387.66
2019-06-10T08:22:31.262Z,101379.16
2019-06-10T08:24:52.302Z,101377.38
2019-06-10T08:27:22.717Z,101367.11
2019-06-10T08:30:07.782Z,101360.23
2019-06-10T08:32:20.920Z,101362.95
2019-06-10T08:34:49.235Z,101349.34
2019-06-10T08:37:18.829Z,101348.53
2019-06-10T08:39:47.687Z,101356.14
2019-06-10T08:42:15.792Z,101350.08
2019-06-10T08:44:47.266Z,101354.16
2019-06-10T08:47:14.791Z,101350.64
2019-06-10T08:49:46.201Z,101344.80
2019-06-10T08:52:13.798Z,101345.69
2019-06-10T08:54:45.703Z,101343.64
2019-06-10T08:57:14.862Z,101344.16
2019-06-10T08:59:46.064Z,101342.60
2019-06-10T09:02:13.770Z,101343.33
2019-06-10T09:04:45.961Z,101334.94
2019-06-10T09:07:14.448Z,101337.72
2019-06-10T09:09:48.635Z,101331.37
2019-06-10T09:12:28.747Z,101342.95
2019-06-10T09:14:48.184Z,101334.63
2019-06-10T09:17:16.148Z,101329.51
2019-06-10T09:19:46.443Z,101329.50
2019-06-10T09:22:33.774Z,101327.66
2019-06-10T09:25:03.063Z,101319.84
2019-06-10T09:27:32.755Z,101316.43
2019-06-10T09:30:03.014Z,101306.39
2019-06-10T09:32:32.570Z,101312.36
2019-06-10T09:35:03.216Z,101300.59
2019-06-10T09:37:32.038Z,101296.54
2019-06-10T09:40:03.367Z,101298.48
2019-06-10T09:42:33.204Z,101297.00
2019-06-10T09:45:02.652Z,101289.62
2019-06-10T09:47:34.015Z,101290.11
2019-06-10T09:50:03.257Z,101287.53
2019-06-10T09:52:32.859Z,101285.97
2019-06-10T09:55:02.778Z,101281.56
2019-06-10T09:57:32.145Z,101281.70
2019-06-10T10:00:03.090Z,101284.83
2019-06-10T10:02:29.772Z,101270.97
2019-06-10T10:04:58.570Z,101274.77
2019-06-10T10:07:32.322Z,101271.67
2019-06-10T10:10:04.497Z,101272.02
2019-06-10T10:12:32.699Z,101272.98
2019-06-10T10:15:22.241Z,101267.36
2019-06-10T10:17:33.414Z,101261.91
2019-06-10T10:20:03.201Z,101257.59
2019-06-10T10:22:33.351Z,101251.42
2019-06-10T10:25:04.201Z,101251.13
2019-06-10T10:27:32.439Z,101247.65
2019-06-10T10:30:03.149Z,101248.69
2019-06-10T10:32:33.442Z,101253.91
2019-06-10T10:35:03.063Z,101245.07
2019-06-10T10:37:33.833Z,101244.94
2019-06-10T10:40:03.907Z,101235.69
2019-06-10T10:42:45.533Z,101246.07
2019-06-10T10:45:06.074Z,101225.06
2019-06-10T10:47:34.317Z,101222.12
2019-06-10T10:50:06.150Z,101229.23
2019-06-10T10:52:34.015Z,101231.72
2019-06-10T10:55:06.541Z,101232.17
2019-06-10T10:57:33.226Z,101238.36
2019-06-10T11:00:03.149Z,101227.20
2019-06-10T11:02:32.228Z,101225.73
2019-06-10T11:05:00.139Z,101223.55
2019-06-10T11:07:28.099Z,101219.86
2019-06-10T11:09:56.873Z,101220.28
2019-06-10T11:12:25.840Z,101224.25
2019-06-10T11:14:55.353Z,101218.83
2019-06-10T11:17:23.942Z,101215.22
2019-06-10T11:19:53.702Z,101207.73
2019-06-10T11:22:23.151Z,101203.14
2019-06-10T11:24:54.427Z,101203.08
2019-06-10T11:27:22.833Z,101194.59
2019-06-10T11:29:53.149Z,101187.82
2019-06-10T11:32:20.467Z,101177.02
2019-06-10T11:34:48.211Z,101171.28
2019-06-10T11:37:16.037Z,101161.64
2019-06-10T11:39:44.063Z,101159.37
2019-06-10T11:42:13.749Z,101156.80
2019-06-10T11:44:43.258Z,101153.83
2019-06-10T11:47:13.248Z,101151.58
2019-06-10T11:49:43.452Z,101160.91
2019-06-10T11:52:12.618Z,101157.94
2019-06-10T11:54:53.787Z,101164.94
2019-06-10T11:57:12.511Z,101154.27
2019-06-10T11:59:40.079Z,101155.66
2019-06-10T12:02:07.809Z,101152.94
2019-06-10T12:04:35.921Z,101161.72
2019-06-10T12:07:04.454Z,101147.59
2019-06-10T12:09:33.416Z,101156.16
2019-06-10T12:12:02.208Z,101150.91
2019-06-10T12:14:32.831Z,101144.46
2019-06-10T12:17:30.922Z,101144.39
2019-06-10T12:19:34.081Z,101136.55
2019-06-10T12:22:07.200Z,101141.13
2019-06-10T12:24:33.340Z,101131.73
2019-06-10T12:27:04.816Z,101127.80
2019-06-10T12:29:31.822Z,101140.34
2019-06-10T12:32:02.819Z,101134.33
2019-06-10T12:34:29.267Z,101134.45
2019-06-10T12:37:07.467Z,101124.64
2019-06-10T12:39:28.806Z,101127.55
2019-06-10T12:41:58.312Z,101121.55
2019-06-10T12:44:27.941Z,101115.13
2019-06-10T12:46:57.989Z,101104.66
2019-06-10T12:49:25.595Z,101100.93
2019-06-10T12:51:54.765Z,101102.27
2019-06-10T12:54:23.085Z,101106.23
2019-06-10T12:56:56.505Z,101108.92
2019-06-10T12:59:24.789Z,101106.54
2019-06-10T13:01:53.190Z,101100.88
2019-06-10T13:04:21.854Z,101102.06
2019-06-10T13:06:51.980Z,101094.19
2019-06-10T13:09:19.510Z,101097.94
2019-06-10T13:11:47.211Z,101092.46
2019-06-10T13:14:18.175Z,101083.18
2019-06-10T13:16:44.672Z,101078.02
2019-06-10T13:19:13.294Z,101079.80
2019-06-10T13:21:42.638Z,101082.05
2019-06-10T13:24:12.897Z,101080.16
2019-06-10T13:26:43.001Z,101083.59
2019-06-10T13:29:11.303Z,101082.23
2019-06-10T13:31:39.829Z,101077.94
2019-06-10T13:34:11.299Z,101073.96
2019-06-10T13:36:37.499Z,101075.41
2019-06-10T13:39:10.143Z,101071.34
2019-06-10T13:41:37.069Z,101071.51
2019-06-10T13:44:06.313Z,101064.20
2019-06-10T13:46:34.208Z,101063.11
2019-06-10T13:49:04.479Z,101060.93
2019-06-10T13:51:32.341Z,101049.58
2019-06-10T13:54:03.801Z,101042.83
2019-06-10T13:56:45.762Z,101041.69
2019-06-10T13:59:01.605Z,101036.95
2019-06-10T14:01:34.657Z,101042.79
2019-06-10T14:04:02.979Z,101044.11
2019-06-10T14:06:45.474Z,101032.27
2019-06-10T14:09:00.885Z,101028.83
2019-06-10T14:11:30.205Z,101019.47
2019-06-10T14:13:58.380Z,101026.29
2019-06-10T14:16:26.109Z,101022.57
2019-06-10T14:18:54.281Z,101030.33
2019-06-10T14:21:23.425Z,101027.63
2019-06-10T14:23:51.470Z,101022.61
2019-06-10T14:26:34.457Z,101021.03
2019-06-10T14:28:48.991Z,101013.20
2019-06-10T14:31:38.663Z,101017.21
2019-06-10T14:33:47.420Z,101010.09
2019-06-10T14:36:16.819Z,101018.50
2019-06-10T14:38:45.080Z,101020.18
2019-06-10T14:41:14.231Z,101023.36
2019-06-10T14:43:43.789Z,101027.89
2019-06-10T14:46:14.373Z,101028.91
2019-06-10T14:48:42.740Z,101028.31
2019-06-10T14:51:14.906Z,101033.20
2019-06-10T14:53:42.528Z,101026.58
2019-06-10T14:56:14.857Z,101031.12
2019-06-10T14:58:42.448Z,101020.86
2019-06-10T15:01:17.769Z,101016.64
2019-06-10T15:03:40.158Z,101011.38
2019-06-10T15:06:09.172Z,101014.82
2019-06-10T15:08:37.117Z,101024.01
2019-06-10T15:11:07.540Z,101020.08
2019-06-10T15:13:35.688Z,101025.09
2019-06-10T15:16:04.367Z,101016.97
2019-06-10T15:18:33.123Z,101003.55
2019-06-10T15:21:03.016Z,101008.73
2019-06-10T15:23:32.525Z,101009.98
2019-06-10T15:26:02.596Z,101021.75
2019-06-10T15:28:30.654Z,101029.55
2019-06-10T15:30:58.662Z,101027.97
2019-06-10T15:33:26.592Z,101034.07
2019-06-10T15:35:54.362Z,101031.22
2019-06-10T15:38:23.122Z,101017.97
2019-06-10T15:40:53.368Z,101015.40
2019-06-10T15:43:23.309Z,101030.48
2019-06-10T15:45:52.857Z,101030.31
2019-06-10T15:48:24.986Z,101034.82
2019-06-10T15:50:52.684Z,101027.02
2019-06-10T15:53:25.428Z,101029.23
2019-06-10T15:56:16.752Z,101013.28
2019-06-10T15:58:25.525Z,100998.58
2019-06-10T16:00:54.382Z,100995.52
2019-06-10T16:03:25.689Z,100993.27
2019-06-10T16:05:53.249Z,100994.21
2019-06-10T16:08:22.327Z,101010.25
2019-06-10T16:10:52.519Z,101014.97
2019-06-10T16:13:21.497Z,101028.52
2019-06-10T16:15:52.932Z,101025.28
2019-06-10T16:18:25.172Z,101025.44
2019-06-10T16:20:52.770Z,101021.39
2019-06-10T16:23:23.022Z,101014.41
2019-06-10T16:25:53.156Z,101004.47
2019-06-10T16:28:23.416Z,100997.06
2019-06-10T16:30:53.653Z,100992.64
2019-06-10T16:33:26.080Z,100991.53
2019-06-10T16:35:51.807Z,100985.98
2019-06-10T16:38:22.387Z,100983.88
2019-06-10T16:40:53.362Z,100979.44
2019-06-10T16:43:22.720Z,100981.89
2019-06-10T16:45:49.604Z,100969.56
2019-06-10T16:48:17.420Z,100971.13
2019-06-10T16:50:47.163Z,100979.73
2019-06-10T16:53:17.784Z,100979.69
2019-06-10T16:55:44.884Z,100982.03
2019-06-10T16:58:15.676Z,100987.08
2019-06-10T17:00:43.441Z,100993.97
2019-06-10T17:03:12.811Z,100985.25
2019-06-10T17:05:42.610Z,100972.94
2019-06-10T17:08:12.658Z,100975.00
2019-06-10T17:10:40.269Z,100975.87
2019-06-10T17:13:09.524Z,100980.23
2019-06-10T17:15:37.406Z,100981.25
2019-06-10T17:18:05.200Z,100987.92
2019-06-10T17:20:34.156Z,100969.20
2019-06-10T17:23:26.427Z,100954.17
2019-06-10T17:25:55.199Z,100961.50
2019-06-10T17:28:29.001Z,100956.13
2019-06-10T17:30:55.966Z,100965.86
2019-06-10T17:33:25.826Z,100956.48
2019-06-10T17:35:53.406Z,100962.44
2019-06-10T17:38:22.545Z,100964.95
2019-06-10T17:40:52.140Z,100964.79
2019-06-10T17:43:20.959Z,100971.31
2019-06-10T17:45:48.861Z,100992.51
2019-06-10T17:48:16.679Z,101002.05
2019-06-10T17:50:45.257Z,101000.52
2019-06-10T17:53:12.986Z,100996.70
2019-06-10T17:55:41.017Z,100990.84
2019-06-10T17:58:08.776Z,100989.35
2019-06-10T18:00:36.735Z,101004.38
2019-06-10T18:03:05.281Z,101009.50
2019-06-10T18:05:33.535Z,101004.67
2019-06-10T18:08:02.324Z,101003.02
2019-06-10T18:10:34.471Z,101013.79
2019-06-10T18:13:13.031Z,101018.75
2019-06-10T18:15:35.357Z,101023.16
2019-06-10T18:18:03.596Z,101028.77
2019-06-10T18:20:36.972Z,101018.92
2019-06-10T18:23:04.811Z,101019.39
2019-06-10T18:25:33.949Z,101027.36
2019-06-10T18:28:04.488Z,101036.06
2019-06-10T18:30:35.663Z,101044.41
2019-06-10T18:33:03.031Z,101052.26
2019-06-10T18:35:34.323Z,101052.98
2019-06-10T18:38:02.334Z,101060.56
2019-06-10T18:40:31.522Z,101066.19
2019-06-10T18:42:59.383Z,101065.09
2019-06-10T18:45:27.625Z,101073.61
2019-06-10T18:47:55.497Z,101079.42
2019-06-10T18:50:26.073Z,101075.66
2019-06-10T18:52:56.839Z,101087.72
2019-06-10T18:55:23.886Z,101102.42
2019-06-10T18:57:53.015Z,101111.06
2019-06-10T19:00:22.902Z,101138.69
2019-06-10T19:03:08.207Z,101157.43
2019-06-10T19:05:22.925Z,101170.62
2019-06-10T19:07:52.886Z,101179.41
2019-06-10T19:10:23.046Z,101188.08
2019-06-10T19:12:53.101Z,101175.13
2019-06-10T19:15:20.872Z,101165.72
2019-06-10T19:17:48.807Z,101160.47
2019-06-10T19:20:17.342Z,101167.62
2019-06-10T19:22:45.046Z,101177.27
2019-06-10T19:25:13.077Z,101179.45
2019-06-10T19:27:44.300Z,101175.65
2019-06-10T19:30:12.536Z,101176.58
2019-06-10T19:32:44.115Z,101175.56
2019-06-10T19:35:13.070Z,101181.88
2019-06-10T19:37:42.391Z,101169.14
2019-06-10T19:40:12.389Z,101162.91
2019-06-10T19:42:40.398Z,101158.40
2019-06-10T19:45:08.557Z,101152.67
2019-06-10T19:47:37.586Z,101144.13
2019-06-10T19:50:06.680Z,101143.47
2019-06-10T19:52:35.253Z,101134.48
2019-06-10T19:55:07.031Z,101120.08
2019-06-10T19:57:35.865Z,101122.98
2019-06-10T20:00:11.702Z,101110.12
2019-06-10T20:02:37.617Z,101105.20
2019-06-10T20:05:08.053Z,101105.41
2019-06-10T20:07:35.894Z,101104.08
2019-06-10T20:10:05.024Z,101107.78
2019-06-10T20:12:34.193Z,101099.11
2019-06-10T20:15:02.454Z,101102.74
2019-06-10T20:17:32.691Z,101099.16
2019-06-10T20:20:02.554Z,101096.42
2019-06-10T20:22:32.075Z,101088.80
2019-06-10T20:24:59.857Z,101096.75
2019-06-10T20:27:27.747Z,101090.97
2019-06-10T20:30:07.060Z,101089.89
2019-06-10T20:32:25.281Z,101084.09
2019-06-10T20:34:58.235Z,101084.73
2019-06-10T20:37:26.086Z,101085.44
2019-06-10T20:39:54.025Z,101090.13
2019-06-10T20:42:23.091Z,101086.43
2019-06-10T20:44:51.224Z,101084.37
2019-06-10T20:47:18.934Z,101081.84
2019-06-10T20:49:51.420Z,101078.46
2019-06-10T20:52:16.587Z,101073.64
2019-06-10T20:54:46.437Z,101075.98
2019-06-10T20:57:14.379Z,101067.83
2019-06-10T20:59:43.777Z,101069.27
2019-06-10T21:02:13.568Z,101067.11
2019-06-10T21:04:43.685Z,101069.40
2019-06-10T21:07:13.300Z,101071.48
2019-06-10T21:09:46.938Z,101064.25
2019-06-10T21:12:14.089Z,101067.78
2019-06-10T21:15:02.395Z,101070.55
2019-06-10T21:17:30.343Z,101075.59
2019-06-10T21:19:58.092Z,101071.88
2019-06-10T21:22:27.265Z,101076.67
2019-06-10T21:24:55.156Z,101079.68
2019-06-10T21:27:23.984Z,101081.95
2019-06-10T21:29:54.782Z,101085.55
2019-06-10T21:32:21.733Z,101091.59
2019-06-10T21:34:52.524Z,101105.91
2019-06-10T21:37:19.514Z,101116.34
2019-06-10T21:39:48.052Z,101118.95
2019-06-10T21:42:16.998Z,101110.53
2019-06-10T21:44:45.849Z,101113.20
2019-06-10T21:47:13.630Z,101110.94
2019-06-10T21:49:42.717Z,101116.72
2019-06-10T21:52:12.951Z,101121.41
2019-06-10T21:54:42.587Z,101119.62
2019-06-10T21:57:10.776Z,101125.65
2019-06-10T21:59:38.480Z,101121.69
2019-06-10T22:02:06.288Z,101117.84
2019-06-10T22:04:34.495Z,101121.95
2019-06-10T22:07:03.139Z,101117.02
2019-06-10T22:09:31.121Z,101116.70
2019-06-10T22:11:58.925Z,101119.22
2019-06-10T22:14:30.112Z,101116.83
2019-06-10T22:16:57.861Z,101103.45
2019-06-10T22:19:25.911Z,101105.86
2019-06-10T22:21:55.236Z,101102.84
2019-06-10T22:24:23.218Z,101109.22
2019-06-10T22:26:51.159Z,101103.22
2019-06-10T22:29:18.845Z,101101.41
2019-06-10T22:31:47.171Z,101100.57
2019-06-10T22:34:15.131Z,101098.63
2019-06-10T22:36:42.973Z,101091.00
2019-06-10T22:39:12.468Z,101095.56
2019-06-10T22:41:42.486Z,101099.53
2019-06-10T22:44:12.537Z,101097.13
2019-06-10T22:46:42.385Z,101096.05
2019-06-10T22:49:09.812Z,101093.52
2019-06-10T22:51:37.735Z,101093.52
2019-06-10T22:54:05.634Z,101102.05
2019-06-10T22:56:33.517Z,101107.84
2019-06-10T22:59:03.371Z,101108.55
2019-06-10T23:01:37.706Z,101097.42
2019-06-10T23:04:03.544Z,101103.59
2019-06-10T23:06:30.314Z,101103.25
2019-06-10T23:08:59.372Z,101104.45
2019-06-10T23:11:27.494Z,101106.27
2019-06-10T23:13:56.537Z,101106.89
2019-06-10T23:16:24.796Z,101098.20
2019-06-10T23:18:56.769Z,101104.95
2019-06-10T23:21:23.986Z,101101.47
2019-06-10T23:23:53.800Z,101113.27
2019-06-10T23:26:22.613Z,101116.87
2019-06-10T23:28:52.769Z,101113.02
2019-06-10T23:31:20.074Z,101108.09
2019-06-10T23:33:47.914Z,101105.44
2019-06-10T23:36:15.709Z,101120.97
2019-06-10T23:38:43.387Z,101127.59
2019-06-10T23:41:13.006Z,101129.03
2019-06-10T23:43:42.300Z,101128.79
2019-06-10T23:46:12.132Z,101121.92
2019-06-10T23:48:42.275Z,101125.55
2019-06-10T23:51:11.981Z,101128.08
2019-06-10T23:53:39.322Z,101124.11
2019-06-10T23:56:07.393Z,101124.11
2019-06-10T23:58:35.291Z,101120.34
